Time;durP1;ratioP1;P1;durP2;ratioP2;P2;SDS_P1;SDS_P2;PMS_P1;PMS_P2;Temp;Humidity;BMP_temperature;BMP_pressure;BME280_temperature;BME280_humidity;BME280_pressure;Samples;Min_cycle;Max_cycle;Signal;HPM_P1;HPM_P2
2023/03/23 00:00:21;;;;;;;23.60;21.70;;;11.40;99.90;;;;;;5022785;28;20469;-79
2023/03/23 00:02:48;;;;;;;25.70;23.50;;;11.40;99.90;;;;;;5022796;28;20844;-79
2023/03/23 00:05:15;;;;;;;23.10;21.10;;;11.40;99.90;;;;;;5023066;28;20454;-80
2023/03/23 00:07:44;;;;;;;22.53;20.60;;;11.40;99.90;;;;;;5022992;28;20529;-79
2023/03/23 00:10:12;;;;;;;23.30;21.30;;;11.40;99.90;;;;;;5023360;28;20471;-79
2023/03/23 00:12:41;;;;;;;24.17;22.17;;;11.40;99.90;;;;;;5023155;28;20439;-78
2023/03/23 00:15:12;;;;;;;22.40;20.53;;;11.40;99.90;;;;;;5021422;28;20488;-78
2023/03/23 00:17:43;;;;;;;23.53;21.57;;;11.40;99.90;;;;;;5021123;28;20952;-78
2023/03/23 00:20:12;;;;;;;24.17;22.07;;;11.40;99.90;;;;;;5021074;28;21003;-78
2023/03/23 00:22:40;;;;;;;23.80;21.80;;;11.40;99.90;;;;;;5038796;28;20434;-78
2023/03/23 00:25:09;;;;;;;24.23;22.30;;;11.40;99.90;;;;;;5024002;28;20443;-79
2023/03/23 00:27:36;;;;;;;24.20;22.20;;;11.40;99.90;;;;;;5023832;28;20476;-78
2023/03/23 00:30:03;;;;;;;24.50;22.30;;;11.40;99.90;;;;;;5023355;28;20494;-78
2023/03/23 00:32:31;;;;;;;24.40;22.27;;;11.40;99.90;;;;;;5023182;28;20438;-78
2023/03/23 00:34:59;;;;;;;25.20;22.97;;;11.40;99.90;;;;;;5040949;28;20979;-78
2023/03/23 00:37:27;;;;;;;24.27;22.17;;;11.40;99.90;;;;;;5023486;28;20446;-79
2023/03/23 00:39:57;;;;;;;24.77;22.57;;;11.40;99.90;;;;;;5040037;28;20442;-78
2023/03/23 00:42:24;;;;;;;25.07;22.90;;;11.40;99.90;;;;;;5025068;28;20450;-78
2023/03/23 00:44:53;;;;;;;25.03;22.93;;;11.40;99.90;;;;;;5024012;28;20449;-79
2023/03/23 00:47:21;;;;;;;24.57;22.50;;;11.40;99.90;;;;;;5040189;28;20446;-78
2023/03/23 00:49:49;;;;;;;24.27;22.17;;;11.40;99.90;;;;;;5023350;28;20530;-78
2023/03/23 00:52:19;;;;;;;23.43;21.53;;;11.40;99.90;;;;;;5024574;28;20443;-78
2023/03/23 00:54:46;;;;;;;25.20;23.10;;;11.50;99.90;;;;;;5025417;28;20529;-78
2023/03/23 00:57:17;;;;;;;25.07;22.80;;;11.50;99.90;;;;;;5025994;28;20439;-79
2023/03/23 00:59:46;;;;;;;24.83;22.70;;;11.50;99.90;;;;;;5026226;28;20444;-79
2023/03/23 01:02:17;;;;;;;24.50;22.30;;;11.50;99.90;;;;;;5026716;28;20850;-79
2023/03/23 01:04:51;;;;;;;24.60;22.60;;;11.50;99.90;;;;;;5042952;28;20435;-79
2023/03/23 01:07:23;;;;;;;25.03;22.93;;;11.50;99.90;;;;;;5025776;28;20522;-79
2023/03/23 01:09:54;;;;;;;24.67;22.47;;;11.50;99.90;;;;;;5043035;28;20431;-79
2023/03/23 01:12:23;;;;;;;24.60;22.30;;;11.50;99.90;;;;;;5026884;28;20443;-79
2023/03/23 01:14:51;;;;;;;25.43;23.27;;;11.40;99.90;;;;;;5025634;28;20665;-79
2023/03/23 01:17:18;;;;;;;27.60;25.20;;;11.50;99.90;;;;;;5026688;28;20521;-79
2023/03/23 01:19:45;;;;;;;24.87;22.77;;;11.50;99.90;;;;;;5027556;28;20451;-79
2023/03/23 01:22:13;;;;;;;24.17;21.97;;;11.50;99.90;;;;;;5027256;28;20469;-79
2023/03/23 01:24:42;;;;;;;26.30;24.10;;;11.50;99.90;;;;;;5027074;28;20948;-79
2023/03/23 01:27:09;;;;;;;27.10;24.90;;;11.50;99.90;;;;;;5043793;28;20517;-79
2023/03/23 01:29:37;;;;;;;25.63;23.53;;;11.50;99.90;;;;;;5027153;28;20455;-79
2023/03/23 01:32:04;;;;;;;26.50;24.00;;;11.50;99.90;;;;;;5026852;28;20466;-79
2023/03/23 01:34:32;;;;;;;26.83;24.27;;;11.50;99.90;;;;;;5025343;28;20463;-78
2023/03/23 01:36:59;;;;;;;26.20;24.00;;;11.50;99.90;;;;;;5023333;28;20446;-78
2023/03/23 01:39:26;;;;;;;26.13;24.00;;;11.50;99.90;;;;;;5023095;28;20440;-79
2023/03/23 01:41:55;;;;;;;26.30;24.20;;;11.50;99.90;;;;;;5022974;28;20463;-79
2023/03/23 01:45:21;;;;;;;26.90;24.30;;;11.50;99.90;;;;;;5024035;28;20443;-78
2023/03/23 01:47:53;;;;;;;26.03;23.93;;;11.50;99.90;;;;;;5023986;28;20451;-79
2023/03/23 01:50:22;;;;;;;26.77;24.60;;;11.40;99.90;;;;;;5023546;28;20470;-78
2023/03/23 01:52:51;;;;;;;26.07;23.70;;;11.40;99.90;;;;;;5023320;28;20450;-78
2023/03/23 01:55:19;;;;;;;27.33;24.93;;;11.50;99.90;;;;;;5023466;28;20459;-79
2023/03/23 01:57:48;;;;;;;27.20;24.90;;;11.40;99.90;;;;;;5023276;28;20489;-78
2023/03/23 02:00:17;;;;;;;28.30;25.80;;;11.40;99.90;;;;;;5023227;28;20479;-79
2023/03/23 02:02:55;;;;;;;27.33;24.90;;;11.40;99.90;;;;;;5024314;28;20442;-78
2023/03/23 02:05:29;;;;;;;28.20;25.80;;;11.50;99.90;;;;;;5022825;28;20481;-79
2023/03/23 02:08:02;;;;;;;28.47;26.00;;;11.50;99.90;;;;;;5022691;28;20431;-78
2023/03/23 02:10:35;;;;;;;28.60;26.13;;;11.50;99.90;;;;;;5024073;28;20470;-78
2023/03/23 02:13:05;;;;;;;25.90;23.60;;;11.50;99.90;;;;;;5023723;28;20446;-79
2023/03/23 02:15:41;;;;;;;26.93;24.53;;;11.50;99.90;;;;;;5021757;28;20561;-78
2023/03/23 02:18:21;;;;;;;26.57;24.17;;;11.50;99.90;;;;;;5019669;28;20809;-79
2023/03/23 02:21:16;;;;;;;26.03;23.50;;;11.50;99.90;;;;;;5022614;28;20462;-78
2023/03/23 02:24:11;;;;;;;26.67;24.47;;;11.50;99.90;;;;;;5009876;28;20587;-78
2023/03/23 02:26:51;;;;;;;27.63;25.13;;;11.50;99.90;;;;;;5020616;28;20439;-78
2023/03/23 02:29:53;;;;;;;27.27;24.87;;;11.50;99.90;;;;;;5039401;28;20431;-79
2023/03/23 02:32:39;;;;;;;27.60;25.13;;;11.50;99.90;;;;;;5020157;28;20533;-79
2023/03/23 02:35:12;;;;;;;26.70;24.50;;;11.50;99.90;;;;;;5022961;28;20462;-78
2023/03/23 02:37:47;;;;;;;26.10;23.80;;;11.50;99.90;;;;;;5022524;28;20498;-78
2023/03/23 02:40:19;;;;;;;27.23;25.00;;;11.50;99.90;;;;;;5020679;28;20494;-78
2023/03/23 02:42:51;;;;;;;26.30;24.10;;;11.50;99.90;;;;;;5018211;28;20839;-77
2023/03/23 02:45:21;;;;;;;25.53;23.33;;;11.50;99.90;;;;;;5017975;28;20967;-78
2023/03/23 02:47:51;;;;;;;26.10;23.70;;;11.50;99.90;;;;;;5017549;28;20447;-78
2023/03/23 02:50:23;;;;;;;25.90;23.70;;;11.50;99.90;;;;;;5017573;28;20578;-78
2023/03/23 02:52:51;;;;;;;25.03;23.03;;;11.50;99.90;;;;;;5017713;28;20534;-78
2023/03/23 02:55:20;;;;;;;25.57;23.47;;;11.50;99.90;;;;;;5018681;28;20573;-77
2023/03/23 02:57:48;;;;;;;25.87;23.73;;;11.50;99.90;;;;;;5018703;28;20442;-78
2023/03/23 03:00:18;;;;;;;24.60;22.50;;;11.50;99.90;;;;;;5018350;28;20490;-77
2023/03/23 03:02:52;;;;;;;24.30;22.07;;;11.50;99.90;;;;;;5019127;28;20458;-79
2023/03/23 03:05:30;;;;;;;23.83;21.70;;;11.50;99.90;;;;;;5019342;28;20458;-78
2023/03/23 03:08:10;;;;;;;22.97;21.03;;;11.50;99.90;;;;;;5018374;28;20522;-78
2023/03/23 03:10:48;;;;;;;23.17;21.27;;;11.50;99.90;;;;;;5034069;28;20467;-77
2023/03/23 03:13:26;;;;;;;21.30;19.60;;;11.50;99.90;;;;;;5018513;28;20447;-78
2023/03/23 03:15:59;;;;;;;21.37;19.53;;;11.50;99.90;;;;;;5020791;28;20518;-78
2023/03/23 03:18:31;;;;;;;21.20;19.30;;;11.50;99.90;;;;;;5020478;28;20438;-78
2023/03/23 03:21:05;;;;;;;20.90;19.07;;;11.40;99.90;;;;;;5036560;28;20466;-78
2023/03/23 03:23:35;;;;;;;21.80;19.90;;;11.50;99.90;;;;;;5020678;28;20842;-78
2023/03/23 03:26:05;;;;;;;19.27;17.47;;;11.50;99.90;;;;;;5020560;28;20497;-78
2023/03/23 03:28:47;;;;;;;22.13;20.23;;;11.50;99.90;;;;;;5023088;28;20439;-78
2023/03/23 03:31:19;;;;;;;19.97;18.27;;;11.50;99.90;;;;;;5021155;28;20538;-79
2023/03/23 03:33:47;;;;;;;19.60;17.90;;;11.50;99.90;;;;;;5021443;28;21030;-78
2023/03/23 03:36:23;;;;;;;18.93;17.30;;;11.50;99.90;;;;;;5020546;28;20836;-78
2023/03/23 03:38:52;;;;;;;19.03;17.43;;;11.50;99.90;;;;;;5019955;28;20450;-78
2023/03/23 03:41:20;;;;;;;18.50;16.80;;;11.50;99.90;;;;;;5020942;28;20471;-78
2023/03/23 03:43:48;;;;;;;18.43;16.73;;;11.50;99.90;;;;;;5021138;28;20475;-78
2023/03/23 03:46:16;;;;;;;18.10;16.60;;;11.50;99.90;;;;;;5020481;28;20976;-78
2023/03/23 03:48:43;;;;;;;18.00;16.50;;;11.50;99.90;;;;;;5019528;28;20449;-78
2023/03/23 03:51:11;;;;;;;17.77;16.23;;;11.50;99.90;;;;;;5019057;28;20557;-78
2023/03/23 03:53:43;;;;;;;18.40;16.83;;;11.50;99.90;;;;;;5019764;28;20482;-78
2023/03/23 03:56:11;;;;;;;18.80;17.20;;;11.50;99.90;;;;;;5019309;28;20831;-78
2023/03/23 03:58:45;;;;;;;18.83;17.23;;;11.70;99.90;;;;;;5021223;28;20964;-77
2023/03/23 04:05:05;;;;;;;18.03;16.40;;;11.60;99.90;;;;;;5022980;28;20982;-79
2023/03/23 04:07:34;;;;;;;18.10;16.57;;;11.50;99.90;;;;;;5022332;28;20497;-79
2023/03/23 04:10:04;;;;;;;19.10;17.20;;;11.60;99.90;;;;;;5023647;28;20439;-79
2023/03/23 04:12:31;;;;;;;19.13;16.90;;;11.50;99.90;;;;;;5041682;28;20436;-79
2023/03/23 04:14:58;;;;;;;18.30;16.70;;;11.50;99.90;;;;;;5039937;28;20454;-79
2023/03/23 04:17:33;;;;;;;16.40;14.90;;;11.50;99.90;;;;;;5024359;28;20858;-79
2023/03/23 04:20:06;;;;;;;17.40;15.70;;;11.60;99.90;;;;;;5023200;28;20447;-79
2023/03/23 04:22:34;;;;;;;15.90;14.40;;;11.60;99.90;;;;;;5021805;28;20518;-78
2023/03/23 04:25:06;;;;;;;17.60;16.00;;;11.50;99.90;;;;;;5020992;28;20443;-78
2023/03/23 04:27:36;;;;;;;15.20;13.90;;;11.60;99.90;;;;;;5021783;28;20443;-78
2023/03/23 04:30:08;;;;;;;13.90;12.60;;;11.60;99.90;;;;;;5037172;28;20470;-78
2023/03/23 04:32:51;;;;;;;14.50;13.20;;;11.60;99.90;;;;;;5022792;28;20955;-78
2023/03/23 04:35:25;;;;;;;15.70;12.87;;;11.60;99.90;;;;;;5020957;28;20466;-78
2023/03/23 04:38:04;;;;;;;13.00;11.90;;;11.60;99.90;;;;;;5022276;28;20462;-78
2023/03/23 04:40:36;;;;;;;13.57;12.13;;;11.50;99.90;;;;;;5020140;28;20470;-78
2023/03/23 04:43:12;;;;;;;13.03;11.80;;;11.60;99.90;;;;;;5021460;28;20970;-78
2023/03/23 04:45:55;;;;;;;11.70;10.70;;;11.60;99.90;;;;;;5036658;28;21033;-78
2023/03/23 04:48:24;;;;;;;12.37;11.17;;;11.60;99.90;;;;;;5020735;28;20443;-79
2023/03/23 04:51:02;;;;;;;12.60;11.37;;;11.60;99.90;;;;;;5022463;28;20493;-79
2023/03/23 04:53:30;;;;;;;12.07;10.50;;;11.60;99.90;;;;;;5020288;28;20458;-78
2023/03/23 04:56:00;;;;;;;12.70;11.40;;;11.60;99.90;;;;;;5019889;28;20473;-79
2023/03/23 04:58:33;;;;;;;11.47;10.30;;;11.60;99.90;;;;;;5021201;28;20789;-79
2023/03/23 05:01:23;;;;;;;11.80;10.60;;;11.60;99.90;;;;;;5036254;28;20470;-78
2023/03/23 05:04:02;;;;;;;12.17;11.07;;;11.60;99.90;;;;;;5022254;28;20450;-79
2023/03/23 05:06:29;;;;;;;12.17;11.07;;;11.60;99.90;;;;;;5019833;28;20819;-78
2023/03/23 05:09:03;;;;;;;13.03;11.73;;;11.60;99.90;;;;;;5019550;28;20522;-78
2023/03/23 05:11:32;;;;;;;11.93;10.77;;;11.60;99.90;;;;;;5019374;28;20555;-78
2023/03/23 05:14:00;;;;;;;12.10;11.00;;;11.60;99.90;;;;;;5019487;28;20476;-78
2023/03/23 05:16:28;;;;;;;11.87;10.67;;;11.60;99.90;;;;;;5019940;28;20987;-78
2023/03/23 05:18:57;;;;;;;12.50;11.20;;;11.60;99.90;;;;;;5020199;28;21022;-79
2023/03/23 05:21:25;;;;;;;11.20;10.10;;;11.60;99.90;;;;;;5019945;28;21026;-79
2023/03/23 05:23:56;;;;;;;12.83;10.70;;;11.60;99.90;;;;;;5020411;28;20443;-79
2023/03/23 05:26:24;;;;;;;11.47;9.50;;;11.60;99.90;;;;;;5020093;28;20478;-79
2023/03/23 05:28:58;;;;;;;10.67;9.60;;;11.60;99.90;;;;;;5020201;28;20963;-78
2023/03/23 05:31:38;;;;;;;10.07;9.17;;;11.60;99.90;;;;;;5021151;28;20476;-78
2023/03/23 05:34:05;;;;;;;11.57;10.00;;;11.60;99.90;;;;;;5018898;28;20439;-78
2023/03/23 05:36:39;;;;;;;10.17;9.17;;;11.60;99.90;;;;;;5019441;28;20471;-78
2023/03/23 05:39:12;;;;;;;10.40;9.40;;;11.60;99.90;;;;;;5019775;28;20467;-78
2023/03/23 05:42:12;;;;;;;11.27;10.27;;;11.70;99.90;;;;;;4992472;28;20538;-78
2023/03/23 05:45:01;;;;;;;11.43;10.30;;;11.60;99.90;;;;;;5022170;28;20451;-78
2023/03/23 05:47:30;;;;;;;11.97;10.87;;;11.60;99.90;;;;;;5018655;28;20459;-78
2023/03/23 05:50:02;;;;;;;11.37;10.37;;;11.60;99.90;;;;;;5019501;28;20478;-78
2023/03/23 05:52:32;;;;;;;10.93;9.90;;;11.60;99.90;;;;;;5018121;28;20873;-76
2023/03/23 05:55:01;;;;;;;12.80;11.50;;;11.60;99.90;;;;;;5017888;28;20443;-79
2023/03/23 05:57:28;;;;;;;11.30;10.20;;;11.60;99.90;;;;;;5017599;28;20557;-77
2023/03/23 06:00:18;;;;;;;11.80;10.70;;;11.60;99.90;;;;;;5019256;28;20831;-79
2023/03/23 06:02:48;;;;;;;11.63;10.50;;;11.60;99.90;;;;;;5018931;28;20518;-80
2023/03/23 06:05:27;;;;;;;11.77;10.67;;;11.60;99.90;;;;;;5019145;28;20462;-80
2023/03/23 06:07:56;;;;;;;12.40;11.10;;;11.60;99.90;;;;;;5018948;28;20517;-80
2023/03/23 06:10:24;;;;;;;12.63;11.43;;;11.60;99.90;;;;;;5019782;28;20496;-79
2023/03/23 06:12:56;;;;;;;11.43;10.33;;;11.60;99.90;;;;;;5021474;28;20563;-79
2023/03/23 06:15:33;;;;;;;12.20;11.00;;;11.70;99.90;;;;;;5022180;28;20509;-79
2023/03/23 06:18:00;;;;;;;10.67;9.67;;;11.60;99.90;;;;;;5036763;28;20435;-79
2023/03/23 06:20:35;;;;;;;11.90;10.70;;;11.70;99.90;;;;;;5020974;28;20473;-79
2023/03/23 06:23:14;;;;;;;12.43;10.60;;;11.60;99.90;;;;;;5021835;28;20454;-79
2023/03/23 06:25:43;;;;;;;11.60;10.60;;;11.70;99.90;;;;;;5021035;28;20512;-79
2023/03/23 06:28:11;;;;;;;10.90;10.00;;;11.70;99.90;;;;;;5020211;28;21017;-79
2023/03/23 06:30:45;;;;;;;14.30;9.87;;;11.70;99.90;;;;;;5020996;28;20529;-79
2023/03/23 06:33:12;;;;;;;10.50;9.50;;;11.70;99.90;;;;;;5020689;28;20439;-79
2023/03/23 06:35:59;;;;;;;9.57;8.60;;;11.80;99.90;;;;;;4987824;28;20475;-80
2023/03/23 06:38:40;;;;;;;10.70;9.70;;;11.80;99.90;;;;;;5021915;28;20525;-80
2023/03/23 06:41:08;;;;;;;10.00;8.97;;;11.80;99.90;;;;;;5019619;28;20470;-80
2023/03/23 06:43:39;;;;;;;12.07;9.80;;;11.80;99.90;;;;;;5020022;28;20454;-80
2023/03/23 06:46:26;;;;;;;10.43;9.07;;;11.80;99.90;;;;;;5023193;28;20444;-80
2023/03/23 06:48:53;;;;;;;9.90;9.00;;;11.80;99.90;;;;;;5036674;28;20447;-80
2023/03/23 06:51:26;;;;;;;10.90;9.20;;;11.90;99.90;;;;;;5020996;28;21003;-81
2023/03/23 06:53:56;;;;;;;10.27;9.37;;;11.90;99.90;;;;;;5020251;28;20501;-80
2023/03/23 06:56:25;;;;;;;10.53;9.50;;;11.90;99.90;;;;;;5019400;28;20463;-80
2023/03/23 06:58:53;;;;;;;11.93;10.70;;;12.00;99.90;;;;;;5019675;28;20451;-80
2023/03/23 07:01:22;;;;;;;12.07;11.00;;;12.00;99.90;;;;;;5019528;28;20613;-80
2023/03/23 07:03:57;;;;;;;13.33;12.07;;;12.00;99.90;;;;;;5020377;28;20477;-81
2023/03/23 07:06:37;;;;;;;14.17;12.00;;;12.00;99.90;;;;;;5019362;28;20568;-81
2023/03/23 07:09:07;;;;;;;12.70;11.50;;;12.00;99.90;;;;;;5020395;28;20443;-81
2023/03/23 07:11:37;;;;;;;13.50;12.20;;;12.00;99.90;;;;;;5019879;28;20553;-82
2023/03/23 07:14:17;;;;;;;13.40;12.30;;;12.00;99.90;;;;;;5036396;28;20424;-83
2023/03/23 07:16:44;;;;;;;14.30;13.07;;;12.00;99.90;;;;;;5020626;28;20976;-85
2023/03/23 07:19:13;;;;;;;15.83;13.80;;;12.00;99.90;;;;;;5024217;28;20521;-86
2023/03/23 07:21:40;;;;;;;15.03;13.63;;;11.90;99.90;;;;;;5025459;28;20469;-86
2023/03/23 07:24:13;;;;;;;11.17;10.10;;;11.90;99.90;;;;;;5024487;28;20450;-86
2023/03/23 07:27:01;;;;;;;9.60;8.70;;;11.90;99.90;;;;;;5038009;28;20522;-85
2023/03/23 07:29:30;;;;;;;8.00;7.20;;;11.80;99.90;;;;;;5023409;28;20979;-85
2023/03/23 07:32:11;;;;;;;8.50;7.37;;;11.80;99.90;;;;;;5023167;28;20489;-84
2023/03/23 07:34:41;;;;;;;6.80;6.10;;;11.70;99.90;;;;;;5023003;28;20470;-85
2023/03/23 07:37:40;;;;;;;9.00;5.80;;;11.70;99.90;;;;;;5038155;28;20470;-86
2023/03/23 07:40:11;;;;;;;7.87;4.50;;;11.60;99.90;;;;;;5025047;28;20983;-85
2023/03/23 07:42:38;;;;;;;5.77;3.93;;;11.60;99.90;;;;;;5025358;28;20450;-85
2023/03/23 07:45:15;;;;;;;6.60;3.93;;;11.60;99.90;;;;;;5039870;28;20423;-84
2023/03/23 07:47:50;;;;;;;6.80;4.30;;;11.50;99.90;;;;;;5038677;28;20411;-83
2023/03/23 07:53:21;;;;;;;6.20;3.90;;;11.50;99.90;;;;;;5006369;28;20546;-84
2023/03/23 07:56:18;;;;;;;5.87;3.60;;;10.50;99.90;;;;;;5023196;28;20530;-84
2023/03/23 07:58:54;;;;;;;7.47;3.50;;;12.00;99.90;;;;;;5022684;28;20443;-82
2023/03/23 08:01:21;;;;;;;7.50;4.13;;;11.40;99.90;;;;;;5019954;28;20539;-83
2023/03/23 08:12:55;;;;;;;7.83;4.00;;;11.40;99.90;;;;;;5055709;28;20469;-82
2023/03/23 08:15:49;;;;;;;6.20;3.50;;;11.40;99.90;;;;;;5040302;28;20446;-82
2023/03/23 08:18:26;;;;;;;5.83;3.43;;;11.40;99.90;;;;;;5043196;28;20442;-83
2023/03/23 08:21:09;;;;;;;7.27;3.40;;;11.40;99.90;;;;;;5025730;28;20487;-82
2023/03/23 08:23:50;;;;;;;9.07;3.83;;;11.40;99.90;;;;;;5041018;28;20466;-82
2023/03/23 08:26:28;;;;;;;7.60;4.07;;;11.40;99.90;;;;;;5025790;28;20438;-82
2023/03/23 08:29:19;;;;;;;6.70;3.53;;;11.40;99.90;;;;;;5043573;28;20531;-81
2023/03/23 08:31:53;;;;;;;8.20;3.50;;;11.30;99.90;;;;;;5041215;28;20465;-81
2023/03/23 08:34:39;;;;;;;10.17;4.53;;;11.40;99.90;;;;;;5043301;28;20426;-81
2023/03/23 08:37:35;;;;;;;8.27;3.60;;;11.40;99.90;;;;;;5027925;28;20844;-83
2023/03/23 08:40:34;;;;;;;8.80;3.70;;;11.40;99.90;;;;;;5015735;28;20466;-82
2023/03/23 08:43:20;;;;;;;9.17;4.37;;;11.50;99.90;;;;;;5042510;28;20968;-81
2023/03/23 08:46:11;;;;;;;8.43;4.30;;;11.40;99.90;;;;;;5045692;28;20442;-81
2023/03/23 08:49:01;;;;;;;12.00;4.50;;;11.50;99.90;;;;;;5035971;28;20438;-81
2023/03/23 08:51:58;;;;;;;9.83;4.83;;;11.40;99.90;;;;;;5030110;28;20466;-82
2023/03/23 08:54:49;;;;;;;11.63;5.50;;;11.50;99.90;;;;;;5030484;28;20442;-81
2023/03/23 08:57:40;;;;;;;12.33;4.77;;;11.50;99.90;;;;;;5045587;28;20540;-80
2023/03/23 09:00:27;;;;;;;11.23;5.47;;;11.50;99.90;;;;;;5045578;28;20498;-81
2023/03/23 09:03:06;;;;;;;12.70;5.17;;;11.50;99.90;;;;;;5028151;28;20444;-81
2023/03/23 09:06:01;;;;;;;11.20;5.07;;;11.50;99.90;;;;;;5029914;28;20505;-81
2023/03/23 09:08:37;;;;;;;12.30;6.10;;;11.50;99.90;;;;;;5028089;28;20457;-81
2023/03/23 09:11:06;;;;;;;10.80;7.70;;;11.50;99.90;;;;;;5043188;28;20470;-81
2023/03/23 09:13:34;;;;;;;12.73;5.90;;;11.50;99.90;;;;;;5026130;28;20449;-81
2023/03/23 09:16:01;;;;;;;9.47;5.10;;;11.60;99.90;;;;;;5042741;28;20836;-81
2023/03/23 09:18:30;;;;;;;13.30;5.80;;;11.60;99.90;;;;;;5026418;28;20501;-81
2023/03/23 09:20:58;;;;;;;8.23;4.50;;;11.60;99.90;;;;;;5025923;28;20458;-81
2023/03/23 09:23:25;;;;;;;11.17;5.10;;;11.70;99.90;;;;;;5025946;28;20526;-81
2023/03/23 09:25:52;;;;;;;11.90;5.30;;;11.70;99.90;;;;;;5024650;28;20449;-80
2023/03/23 09:28:20;;;;;;;9.17;5.10;;;11.70;99.90;;;;;;5024651;28;20482;-80
2023/03/23 09:30:49;;;;;;;11.60;5.30;;;11.70;99.90;;;;;;5024664;28;20497;-81
2023/03/23 09:33:16;;;;;;;10.30;5.33;;;11.80;99.90;;;;;;5041477;28;21009;-80
2023/03/23 09:35:45;;;;;;;12.63;5.13;;;11.80;99.90;;;;;;5041159;28;20442;-81
2023/03/23 09:38:13;;;;;;;8.67;4.60;;;11.90;99.90;;;;;;5040851;28;20462;-81
2023/03/23 09:40:48;;;;;;;11.07;4.90;;;12.00;99.90;;;;;;5024637;28;20466;-81
2023/03/23 09:43:29;;;;;;;13.83;5.10;;;12.00;99.90;;;;;;5040854;28;20535;-81
2023/03/23 09:46:07;;;;;;;8.07;4.30;;;12.10;99.90;;;;;;5025909;28;20469;-81
2023/03/23 09:48:44;;;;;;;11.40;4.37;;;12.10;99.90;;;;;;5026250;28;20430;-80
2023/03/23 09:51:25;;;;;;;10.33;4.60;;;12.10;99.90;;;;;;5026329;28;20461;-80
2023/03/23 09:54:01;;;;;;;9.77;4.83;;;12.20;99.90;;;;;;5024866;28;20446;-80
2023/03/23 09:56:32;;;;;;;9.97;4.27;;;12.30;99.90;;;;;;5023778;28;20442;-80
2023/03/23 09:59:03;;;;;;;8.20;4.07;;;12.30;99.90;;;;;;5023956;28;20435;-80
2023/03/23 10:01:36;;;;;;;10.03;4.93;;;12.40;99.90;;;;;;5023268;28;20886;-80
2023/03/23 10:04:11;;;;;;;10.77;4.80;;;12.40;99.90;;;;;;5023837;28;20434;-80
2023/03/23 10:06:39;;;;;;;12.87;4.73;;;12.50;99.90;;;;;;5024187;28;21001;-80
2023/03/23 10:09:07;;;;;;;10.97;4.80;;;12.60;99.90;;;;;;5023787;28;20807;-80
2023/03/23 10:11:43;;;;;;;9.43;4.73;;;12.60;99.90;;;;;;5024350;28;20470;-80
2023/03/23 10:14:41;;;;;;;11.60;5.07;;;12.70;99.90;;;;;;5024903;28;20445;-81
2023/03/23 10:17:15;;;;;;;11.43;5.20;;;12.70;99.90;;;;;;5037401;28;20496;-80
2023/03/23 10:19:49;;;;;;;10.27;5.87;;;12.80;99.90;;;;;;5041518;28;20550;-80
2023/03/23 10:22:24;;;;;;;10.27;5.17;;;12.70;99.90;;;;;;5041925;28;20431;-80
2023/03/23 10:24:57;;;;;;;12.77;5.50;;;12.80;99.90;;;;;;5025062;28;20461;-80
2023/03/23 10:27:29;;;;;;;9.80;5.27;;;12.70;99.90;;;;;;5023943;28;20441;-80
2023/03/23 10:30:03;;;;;;;11.60;5.80;;;12.70;99.90;;;;;;5023679;28;20434;-80
2023/03/23 10:32:42;;;;;;;8.47;5.03;;;12.70;99.90;;;;;;5023429;28;20512;-79
2023/03/23 10:35:14;;;;;;;11.00;5.50;;;12.80;99.90;;;;;;5024413;28;20434;-80
2023/03/23 10:37:48;;;;;;;10.53;5.30;;;12.80;99.90;;;;;;5040758;28;20492;-80
2023/03/23 10:40:20;;;;;;;12.60;6.20;;;12.90;99.90;;;;;;5040623;28;20511;-79
2023/03/23 10:42:47;;;;;;;11.40;5.80;;;12.90;99.90;;;;;;5024103;28;20442;-80
2023/03/23 10:45:21;;;;;;;17.00;5.53;;;12.90;99.90;;;;;;5041019;28;20533;-80
2023/03/23 10:47:54;;;;;;;8.13;4.60;;;13.00;99.90;;;;;;5024332;28;20445;-80
2023/03/23 10:50:27;;;;;;;11.00;5.20;;;13.00;99.90;;;;;;5023578;28;20474;-81
2023/03/23 10:52:57;;;;;;;10.50;4.53;;;13.00;99.90;;;;;;5024136;28;20811;-80
2023/03/23 10:55:35;;;;;;;9.17;5.03;;;13.10;99.90;;;;;;5023902;28;20430;-80
2023/03/23 10:58:05;;;;;;;9.57;4.40;;;13.10;99.90;;;;;;5024092;28;20469;-79
2023/03/23 11:00:33;;;;;;;10.63;4.60;;;13.10;99.90;;;;;;5022430;28;20902;-79
2023/03/23 11:03:03;;;;;;;9.90;4.50;;;13.10;99.90;;;;;;5022517;28;20453;-79
2023/03/23 11:05:37;;;;;;;8.70;4.57;;;13.10;99.90;;;;;;5022333;28;20474;-80
2023/03/23 11:08:13;;;;;;;11.40;5.27;;;13.10;99.90;;;;;;5038751;28;20434;-79
2023/03/23 11:10:42;;;;;;;9.90;4.40;;;13.20;99.90;;;;;;5021204;28;20572;-79
2023/03/23 11:13:14;;;;;;;17.13;5.13;;;13.20;99.90;;;;;;5021056;28;20453;-79
2023/03/23 11:15:44;;;;;;;8.97;4.27;;;13.20;99.90;;;;;;5020251;28;20907;-79
2023/03/23 11:18:13;;;;;;;10.20;4.47;;;13.30;99.90;;;;;;5021937;28;20977;-79
2023/03/23 11:20:43;;;;;;;9.87;4.63;;;13.30;99.90;;;;;;5022627;28;20552;-79
2023/03/23 11:23:22;;;;;;;10.47;4.33;;;13.30;99.90;;;;;;5022299;28;20446;-79
2023/03/23 11:25:56;;;;;;;9.13;4.60;;;13.40;99.90;;;;;;5038777;28;20919;-79
2023/03/23 11:28:28;;;;;;;16.63;5.07;;;13.40;99.90;;;;;;5022639;28;20487;-79
2023/03/23 11:30:57;;;;;;;9.63;4.80;;;13.40;99.90;;;;;;5023055;28;20867;-79
2023/03/23 11:33:25;;;;;;;11.70;4.20;;;13.50;99.90;;;;;;5022064;28;20821;-79
2023/03/23 11:35:55;;;;;;;10.60;5.07;;;13.50;99.90;;;;;;5022155;28;21000;-79
2023/03/23 11:38:27;;;;;;;10.03;4.40;;;13.60;99.90;;;;;;5021373;28;20462;-79
2023/03/23 11:40:55;;;;;;;8.70;4.20;;;13.70;99.90;;;;;;5038180;28;20552;-79
2023/03/23 11:43:24;;;;;;;7.97;4.27;;;13.70;99.90;;;;;;5021601;28;20450;-78
2023/03/23 11:46:00;;;;;;;10.73;4.60;;;13.70;99.90;;;;;;5020901;28;20453;-78
2023/03/23 11:48:35;;;;;;;10.40;4.90;;;13.70;99.90;;;;;;5020292;28;20452;-78
2023/03/23 11:51:07;;;;;;;8.40;5.40;;;13.70;99.90;;;;;;5019716;28;20457;-78
2023/03/23 11:53:48;;;;;;;8.63;5.73;;;13.80;99.90;;;;;;5019062;28;20438;-78
2023/03/23 11:56:25;;;;;;;9.77;5.70;;;13.80;99.90;;;;;;5019028;28;20529;-78
2023/03/23 11:58:53;;;;;;;10.40;5.40;;;13.90;99.90;;;;;;5035372;28;20464;-78
2023/03/23 12:01:50;;;;;;;7.90;5.30;;;14.00;99.90;;;;;;5018831;28;20458;-78
2023/03/23 12:04:38;;;;;;;9.30;4.50;;;14.00;99.90;;;;;;4976503;28;20456;-79
2023/03/23 12:07:17;;;;;;;5.90;3.87;;;14.00;99.90;;;;;;5021898;28;20485;-79
2023/03/23 12:09:54;;;;;;;7.20;5.47;;;14.00;99.90;;;;;;5021595;28;20492;-79
2023/03/23 12:12:31;;;;;;;7.23;4.20;;;14.00;99.90;;;;;;5021288;28;20457;-79
2023/03/23 12:15:10;;;;;;;6.07;4.03;;;14.10;99.90;;;;;;5036963;28;20536;-79
2023/03/23 12:17:46;;;;;;;9.80;4.00;;;14.10;99.90;;;;;;5022206;28;21031;-79
2023/03/23 12:20:27;;;;;;;6.40;3.50;;;14.20;99.90;;;;;;5023605;28;20544;-79
2023/03/23 12:23:05;;;;;;;5.50;3.33;;;14.30;99.90;;;;;;5024078;28;20442;-78
2023/03/23 12:25:49;;;;;;;6.80;3.80;;;14.30;99.90;;;;;;5022611;28;21029;-77
2023/03/23 12:28:30;;;;;;;6.00;3.50;;;14.40;99.90;;;;;;5022647;28;20535;-78
2023/03/23 12:31:03;;;;;;;5.77;2.63;;;14.50;99.90;;;;;;5022622;28;21002;-78
2023/03/23 12:36:31;;;;;;;5.43;2.67;;;14.60;99.90;;;;;;5036977;28;20486;-74
2023/03/23 12:39:12;;;;;;;5.27;2.80;;;14.60;99.90;;;;;;5021977;28;20468;-74
2023/03/23 12:41:48;;;;;;;6.10;2.87;;;14.70;99.90;;;;;;5023330;28;20859;-74
2023/03/23 12:44:18;;;;;;;5.47;3.23;;;14.80;99.90;;;;;;5018755;28;20434;-74
2023/03/23 12:47:08;;;;;;;6.50;3.50;;;14.90;99.90;;;;;;5019311;28;20848;-74
2023/03/23 12:49:39;;;;;;;13.80;6.10;;;14.90;99.90;;;;;;5002547;28;20450;-74
2023/03/23 12:52:14;;;;;;;12.30;5.77;;;14.90;99.90;;;;;;5003191;28;20553;-74
2023/03/23 12:54:49;;;;;;;8.07;3.90;;;14.90;99.90;;;;;;5018483;28;20925;-74
2023/03/23 12:57:27;;;;;;;7.23;3.20;;;14.90;99.90;;;;;;5018538;28;20446;-74
2023/03/23 12:59:58;;;;;;;6.23;3.23;;;14.90;99.90;;;;;;5018661;28;20419;-74
2023/03/23 13:02:30;;;;;;;6.13;3.50;;;15.00;99.90;;;;;;5001930;28;20441;-73
2023/03/23 13:05:03;;;;;;;7.67;2.83;;;15.00;99.90;;;;;;5001838;28;20449;-73
2023/03/23 13:07:34;;;;;;;7.20;3.30;;;15.00;99.90;;;;;;5018619;28;20427;-74
2023/03/23 13:10:05;;;;;;;5.43;3.50;;;15.10;99.90;;;;;;5018311;28;20477;-73
2023/03/23 13:12:39;;;;;;;5.73;3.40;;;15.10;99.90;;;;;;5018552;28;20427;-74
2023/03/23 13:15:19;;;;;;;4.77;3.00;;;15.10;99.90;;;;;;5018376;28;20428;-73
2023/03/23 13:17:53;;;;;;;5.93;2.80;;;15.10;99.90;;;;;;5017994;28;20955;-74
2023/03/23 13:21:00;;;;;;;5.67;3.30;;;15.10;99.90;;;;;;5018144;28;20463;-73
2023/03/23 13:23:32;;;;;;;6.60;3.17;;;15.10;99.90;;;;;;4979549;28;20453;-74
2023/03/23 13:26:03;;;;;;;6.60;3.20;;;15.00;99.90;;;;;;5017956;28;20517;-73
2023/03/23 13:28:49;;;;;;;5.30;3.20;;;15.00;99.90;;;;;;5017849;28;20427;-73